Time;durP1;ratioP1;P1;durP2;ratioP2;P2;SDS_P1;SDS_P2;PMS_P1;PMS_P2;Temp;Humidity;BMP_temperature;BMP_pressure;BME280_temperature;BME280_humidity;BME280_pressure;Samples;Min_cycle;Max_cycle;Signal;HPM_P1;HPM_P2
2021/11/24 00:01:36;;;;;;;15.32;11.20;;;;;;;;;;5014247;28;20054;-66
2021/11/24 00:04:03;;;;;;;16.35;10.23;;;;;;;;;;5014961;28;20125;-66
2021/11/24 00:06:30;;;;;;;18.58;10.95;;;;;;;;;;5014659;28;20108;-67
2021/11/24 00:08:56;;;;;;;19.33;10.98;;;;;;;;;;5014776;28;20100;-66
2021/11/24 00:11:23;;;;;;;15.82;11.02;;;;;;;;;;5014249;28;20508;-67
2021/11/24 00:13:50;;;;;;;16.70;10.77;;;;;;;;;;5011015;28;20100;-67
2021/11/24 00:16:17;;;;;;;18.38;11.00;;;;;;;;;;4994507;28;20104;-66
2021/11/24 00:18:44;;;;;;;19.52;11.85;;;;;;;;;;4994982;28;20133;-66
2021/11/24 00:21:10;;;;;;;18.90;11.82;;;;;;;;;;4994561;28;20050;-66
2021/11/24 00:23:37;;;;;;;15.95;11.60;;;;;;;;;;4994708;28;20046;-67
2021/11/24 00:26:04;;;;;;;14.77;10.40;;;;;;;;;;4994683;28;20108;-66
2021/11/24 00:28:30;;;;;;;16.02;10.70;;;;;;;;;;4994417;28;20046;-66
2021/11/24 00:30:57;;;;;;;15.65;10.48;;;;;;;;;;4996114;28;20124;-66
2021/11/24 00:33:26;;;;;;;16.95;10.68;;;;;;;;;;5013903;28;20080;-66
2021/11/24 00:35:53;;;;;;;14.85;10.50;;;;;;;;;;5014172;28;20112;-66
2021/11/24 00:38:20;;;;;;;18.52;11.13;;;;;;;;;;5013891;28;20180;-67
2021/11/24 00:40:47;;;;;;;17.60;10.18;;;;;;;;;;5032553;28;20103;-66
2021/11/24 00:43:14;;;;;;;15.35;10.55;;;;;;;;;;5033372;28;20054;-66
2021/11/24 00:45:40;;;;;;;16.27;10.43;;;;;;;;;;5033769;28;20484;-66
2021/11/24 00:48:07;;;;;;;14.45;9.55;;;;;;;;;;5033465;28;20496;-66
2021/11/24 00:50:34;;;;;;;14.35;10.00;;;;;;;;;;5033353;28;20077;-66
2021/11/24 00:53:00;;;;;;;14.80;10.00;;;;;;;;;;5033261;28;20053;-66
2021/11/24 00:55:27;;;;;;;18.67;10.75;;;;;;;;;;5033370;28;20492;-66
2021/11/24 00:57:55;;;;;;;17.15;10.27;;;;;;;;;;5033357;28;20053;-67
2021/11/24 01:00:22;;;;;;;15.77;10.85;;;;;;;;;;5032982;28;20182;-67
2021/11/24 01:02:49;;;;;;;16.02;10.63;;;;;;;;;;5033274;28;20511;-66
2021/11/24 01:05:17;;;;;;;14.68;9.93;;;;;;;;;;5031903;28;20049;-67
2021/11/24 01:07:44;;;;;;;14.93;10.00;;;;;;;;;;5033399;28;20136;-67
2021/11/24 01:10:11;;;;;;;13.80;10.00;;;;;;;;;;5033048;28;20056;-66
2021/11/24 01:12:39;;;;;;;17.88;10.35;;;;;;;;;;5032962;28;20103;-66
2021/11/24 01:15:06;;;;;;;14.82;9.60;;;;;;;;;;5032801;28;20060;-67
2021/11/24 01:17:33;;;;;;;16.58;10.60;;;;;;;;;;5032924;28;20049;-66
2021/11/24 01:20:00;;;;;;;11.98;9.13;;;;;;;;;;5032791;28;20049;-67
2021/11/24 01:22:26;;;;;;;14.75;9.88;;;;;;;;;;5032706;28;20107;-66
2021/11/24 01:24:53;;;;;;;14.98;9.45;;;;;;;;;;5032870;28;20050;-66
2021/11/24 01:27:24;;;;;;;14.43;9.65;;;;;;;;;;5032786;28;20500;-66
2021/11/24 01:29:50;;;;;;;16.02;9.52;;;;;;;;;;5032703;28;20467;-67
2021/11/24 01:32:17;;;;;;;14.38;9.48;;;;;;;;;;5032494;28;20123;-66
2021/11/24 01:34:43;;;;;;;18.50;9.70;;;;;;;;;;5032554;28;20492;-66
2021/11/24 01:37:10;;;;;;;15.30;10.10;;;;;;;;;;5032776;28;20053;-66
2021/11/24 01:39:38;;;;;;;18.48;11.23;;;;;;;;;;5024962;28;20119;-67
2021/11/24 01:42:05;;;;;;;14.98;10.60;;;;;;;;;;5012667;28;20046;-67
2021/11/24 01:44:32;;;;;;;15.13;10.25;;;;;;;;;;5012633;28;20049;-67
2021/11/24 01:47:02;;;;;;;14.90;9.13;;;;;;;;;;5012830;28;20076;-67
2021/11/24 01:49:29;;;;;;;17.00;9.82;;;;;;;;;;5012009;28;20427;-67
2021/11/24 01:51:56;;;;;;;14.30;9.85;;;;;;;;;;5012464;28;20058;-67
2021/11/24 01:54:23;;;;;;;14.15;9.85;;;;;;;;;;5012602;28;20053;-67
2021/11/24 01:56:50;;;;;;;16.80;9.88;;;;;;;;;;5012532;28;20053;-66
2021/11/24 01:59:17;;;;;;;18.50;10.23;;;;;;;;;;4995029;28;20046;-67
2021/11/24 02:01:44;;;;;;;15.15;10.43;;;;;;;;;;5012601;28;20629;-66
2021/11/24 02:04:13;;;;;;;17.63;10.95;;;;;;;;;;5012565;28;20050;-67
2021/11/24 02:06:40;;;;;;;17.60;9.63;;;;;;;;;;5011249;28;20057;-67
2021/11/24 02:09:07;;;;;;;16.25;9.95;;;;;;;;;;5012450;28;20100;-67
2021/11/24 02:11:38;;;;;;;13.75;10.60;;;;;;;;;;5012004;28;20092;-67
2021/11/24 02:14:06;;;;;;;16.55;10.98;;;;;;;;;;5012192;28;20057;-67
2021/11/24 02:16:38;;;;;;;17.25;10.75;;;;;;;;;;5010922;28;20050;-67
2021/11/24 02:19:05;;;;;;;12.95;8.50;;;;;;;;;;5011007;28;20054;-67
2021/11/24 02:21:32;;;;;;;19.25;11.35;;;;;;;;;;5011960;28;20460;-67
2021/11/24 02:23:58;;;;;;;15.48;10.45;;;;;;;;;;5012148;28;20050;-66
2021/11/24 02:26:25;;;;;;;16.75;10.68;;;;;;;;;;5012187;28;20049;-66
2021/11/24 02:28:52;;;;;;;16.55;11.07;;;;;;;;;;5012159;28;20441;-67
2021/11/24 02:31:23;;;;;;;22.35;11.00;;;;;;;;;;4997982;28;20113;-67
2021/11/24 02:33:51;;;;;;;21.88;12.13;;;;;;;;;;4992552;28;20199;-66
2021/11/24 02:36:18;;;;;;;21.23;11.95;;;;;;;;;;4992518;28;20054;-66
2021/11/24 02:38:45;;;;;;;20.70;10.90;;;;;;;;;;4992248;28;20054;-66
2021/11/24 02:41:12;;;;;;;17.45;10.32;;;;;;;;;;4991977;28;20046;-66
2021/11/24 02:43:39;;;;;;;19.23;10.13;;;;;;;;;;4992211;28;20109;-66
2021/11/24 02:46:05;;;;;;;19.35;10.50;;;;;;;;;;4992554;28;20062;-66
2021/11/24 02:48:32;;;;;;;15.68;9.98;;;;;;;;;;4992313;28;20082;-66
2021/11/24 02:50:59;;;;;;;15.05;10.70;;;;;;;;;;4991955;28;20061;-66
2021/11/24 02:53:29;;;;;;;15.98;10.45;;;;;;;;;;4992327;28;20410;-67
2021/11/24 02:55:56;;;;;;;17.67;10.50;;;;;;;;;;4993248;28;20054;-66
2021/11/24 02:58:23;;;;;;;20.23;10.02;;;;;;;;;;5011646;28;20193;-66
2021/11/24 03:00:50;;;;;;;18.75;10.80;;;;;;;;;;5012895;28;20046;-66
2021/11/24 03:03:17;;;;;;;15.45;10.52;;;;;;;;;;5015754;28;20053;-66
2021/11/24 03:05:44;;;;;;;17.33;9.75;;;;;;;;;;5015581;28;20472;-66
2021/11/24 03:08:11;;;;;;;15.05;10.40;;;;;;;;;;5015720;28;20080;-66
2021/11/24 03:10:37;;;;;;;18.55;10.43;;;;;;;;;;5015339;28;20050;-67
2021/11/24 03:13:05;;;;;;;15.02;10.40;;;;;;;;;;5015460;28;20127;-66
2021/11/24 03:15:31;;;;;;;15.85;11.10;;;;;;;;;;5015563;28;20054;-66
2021/11/24 03:17:58;;;;;;;14.25;9.80;;;;;;;;;;5015437;28;20463;-66
2021/11/24 03:20:27;;;;;;;15.38;9.55;;;;;;;;;;5015197;28;20173;-66
2021/11/24 03:22:55;;;;;;;14.60;9.82;;;;;;;;;;5015166;28;20049;-66
2021/11/24 03:25:22;;;;;;;17.25;9.98;;;;;;;;;;5015298;28;20073;-66
2021/11/24 03:27:49;;;;;;;18.10;10.32;;;;;;;;;;5015222;28;20049;-66
2021/11/24 03:30:21;;;;;;;16.65;11.00;;;;;;;;;;5015221;28;20050;-66
2021/11/24 03:32:48;;;;;;;14.88;9.98;;;;;;;;;;5015121;28;20104;-66
2021/11/24 03:35:16;;;;;;;14.85;10.05;;;;;;;;;;5015303;28;20058;-66
2021/11/24 03:37:44;;;;;;;17.67;10.30;;;;;;;;;;5015041;28;20046;-66
2021/11/24 03:40:12;;;;;;;16.83;9.70;;;;;;;;;;5015015;28;20073;-66
2021/11/24 03:42:41;;;;;;;14.73;9.10;;;;;;;;;;5014711;28;20053;-66
2021/11/24 03:45:08;;;;;;;16.35;10.23;;;;;;;;;;5007405;28;20096;-66
2021/11/24 03:47:35;;;;;;;18.10;11.38;;;;;;;;;;4995414;28;20138;-66
2021/11/24 03:50:03;;;;;;;15.18;10.85;;;;;;;;;;5010250;28;20098;-67
2021/11/24 03:52:30;;;;;;;15.93;10.25;;;;;;;;;;4995021;28;20050;-66
2021/11/24 03:54:57;;;;;;;14.82;9.98;;;;;;;;;;4995277;28;20054;-66
2021/11/24 03:57:23;;;;;;;14.95;10.52;;;;;;;;;;5004196;28;20100;-66
2021/11/24 03:59:50;;;;;;;16.33;9.55;;;;;;;;;;5014615;28;20472;-67
2021/11/24 04:02:16;;;;;;;19.70;10.70;;;;;;;;;;5014421;28;20495;-66
2021/11/24 04:04:43;;;;;;;15.18;9.15;;;;;;;;;;5014464;28;20112;-67
2021/11/24 04:07:10;;;;;;;18.05;10.32;;;;;;;;;;5014710;28;20057;-66
2021/11/24 04:09:36;;;;;;;14.63;9.95;;;;;;;;;;5004208;28;20125;-67
2021/11/24 04:12:03;;;;;;;12.63;9.18;;;;;;;;;;4994420;28;20054;-66
2021/11/24 04:14:31;;;;;;;15.98;9.93;;;;;;;;;;4994887;28;20134;-66
2021/11/24 04:16:57;;;;;;;16.77;10.35;;;;;;;;;;4994753;28;20501;-66
2021/11/24 04:19:24;;;;;;;14.60;10.40;;;;;;;;;;4994769;28;20100;-66
2021/11/24 04:21:51;;;;;;;17.52;10.25;;;;;;;;;;4999883;28;20038;-66
2021/11/24 04:24:18;;;;;;;10.65;8.52;;;;;;;;;;5014131;28;20100;-66
2021/11/24 04:26:45;;;;;;;15.57;10.27;;;;;;;;;;5014167;28;20489;-66
2021/11/24 04:29:11;;;;;;;18.00;10.55;;;;;;;;;;5014230;28;20054;-66
2021/11/24 04:31:39;;;;;;;15.30;9.73;;;;;;;;;;5012597;28;20074;-67
2021/11/24 04:34:05;;;;;;;18.40;10.25;;;;;;;;;;5014021;28;20417;-66
2021/11/24 04:36:40;;;;;;;15.70;10.63;;;;;;;;;;5014061;28;20058;-66
2021/11/24 04:39:07;;;;;;;18.02;10.32;;;;;;;;;;5013892;28;20058;-67
2021/11/24 04:41:33;;;;;;;12.85;9.63;;;;;;;;;;5013651;28;20050;-66
2021/11/24 04:44:02;;;;;;;18.58;9.63;;;;;;;;;;5014008;28;20111;-66
2021/11/24 04:46:28;;;;;;;14.20;9.43;;;;;;;;;;4999047;28;20109;-66
2021/11/24 04:48:55;;;;;;;13.07;9.85;;;;;;;;;;4994255;28;20105;-66
2021/11/24 04:51:22;;;;;;;14.13;9.55;;;;;;;;;;4993965;28;20054;-66
2021/11/24 04:53:48;;;;;;;15.98;10.82;;;;;;;;;;4993961;28;20564;-66
2021/11/24 04:56:16;;;;;;;17.25;11.18;;;;;;;;;;4994209;28;20437;-66
2021/11/24 04:58:57;;;;;;;17.95;10.65;;;;;;;;;;4993900;28;20109;-67
2021/11/24 05:01:24;;;;;;;15.73;10.40;;;;;;;;;;4993710;28;20043;-66
2021/11/24 05:03:51;;;;;;;18.23;11.13;;;;;;;;;;4993955;28;20560;-66
2021/11/24 05:06:19;;;;;;;18.60;11.85;;;;;;;;;;4992759;28;20105;-66
2021/11/24 05:08:47;;;;;;;17.30;10.95;;;;;;;;;;4993788;28;20050;-66
2021/11/24 05:11:15;;;;;;;19.75;11.85;;;;;;;;;;4993544;28;20050;-66
2021/11/24 05:13:49;;;;;;;21.48;13.15;;;;;;;;;;4993787;28;20109;-66
2021/11/24 05:16:16;;;;;;;21.67;12.50;;;;;;;;;;4993701;28;20050;-66
2021/11/24 05:18:49;;;;;;;17.52;11.13;;;;;;;;;;4993829;28;20056;-66
2021/11/24 05:21:28;;;;;;;17.05;10.85;;;;;;;;;;4995776;28;20046;-66
2021/11/24 05:23:58;;;;;;;15.93;10.90;;;;;;;;;;5012621;28;20129;-66
2021/11/24 05:26:26;;;;;;;14.02;10.38;;;;;;;;;;5013011;28;20053;-67
2021/11/24 05:28:53;;;;;;;14.65;10.60;;;;;;;;;;5013261;28;20054;-66
2021/11/24 05:31:20;;;;;;;20.15;12.90;;;;;;;;;;5012627;28;20100;-67
2021/11/24 05:33:47;;;;;;;18.48;12.35;;;;;;;;;;5013120;28;20490;-66
2021/11/24 05:36:15;;;;;;;18.92;11.23;;;;;;;;;;5012897;28;20046;-66
2021/11/24 05:38:42;;;;;;;17.75;11.70;;;;;;;;;;5012581;28;20100;-66
2021/11/24 05:41:09;;;;;;;17.98;11.23;;;;;;;;;;5012325;28;20085;-66
2021/11/24 05:43:35;;;;;;;17.90;11.32;;;;;;;;;;4998075;28;20050;-66
2021/11/24 05:48:38;;;;;;;16.55;11.27;;;;;;;;;;5021429;28;20049;-66
2021/11/24 05:51:04;;;;;;;16.85;11.40;;;;;;;;;;5016745;28;20467;-66
2021/11/24 05:53:31;;;;;;;19.58;12.68;;;;;;;;;;5021620;28;20046;-67
2021/11/24 05:55:58;;;;;;;17.33;11.18;;;;;;;;;;5015648;28;20406;-67
2021/11/24 05:58:25;;;;;;;16.63;11.75;;;;;;;;;;5014925;28;20104;-67
2021/11/24 06:00:51;;;;;;;19.92;11.32;;;;;;;;;;5007143;28;20046;-66
2021/11/24 06:03:18;;;;;;;21.75;13.02;;;;;;;;;;5014391;28;20060;-67
2021/11/24 06:05:45;;;;;;;41.42;20.48;;;;;;;;;;5014287;28;20075;-67
2021/11/24 06:08:12;;;;;;;44.80;23.17;;;;;;;;;;5014128;28;20084;-67
2021/11/24 06:10:39;;;;;;;48.00;25.23;;;;;;;;;;5013748;28;20046;-67
2021/11/24 06:13:05;;;;;;;32.20;20.40;;;;;;;;;;5013562;28;20104;-67
2021/11/24 06:15:32;;;;;;;31.17;18.55;;;;;;;;;;4996190;28;20426;-67
2021/11/24 06:17:59;;;;;;;29.83;18.05;;;;;;;;;;4992676;28;20054;-66
2021/11/24 06:20:26;;;;;;;23.73;15.48;;;;;;;;;;4992559;28;20054;-66
2021/11/24 06:22:52;;;;;;;24.45;15.25;;;;;;;;;;4992338;28;20089;-66
2021/11/24 06:25:19;;;;;;;22.75;14.02;;;;;;;;;;4992430;28;20050;-66
2021/11/24 06:27:46;;;;;;;27.70;15.43;;;;;;;;;;4992728;28;20105;-66
2021/11/24 06:30:15;;;;;;;26.83;15.30;;;;;;;;;;4992388;28;20058;-66
2021/11/24 06:32:42;;;;;;;22.58;14.55;;;;;;;;;;4992319;28;20051;-66
2021/11/24 06:35:09;;;;;;;30.08;15.07;;;;;;;;;;4992128;28;20517;-66
2021/11/24 06:37:37;;;;;;;37.05;17.40;;;;;;;;;;4992413;28;20124;-66
2021/11/24 06:40:05;;;;;;;32.00;15.38;;;;;;;;;;4992360;28;20109;-67
2021/11/24 06:42:32;;;;;;;29.48;16.42;;;;;;;;;;4992105;28;20093;-66
2021/11/24 06:44:59;;;;;;;33.80;16.80;;;;;;;;;;4992386;28;20058;-67
2021/11/24 06:47:25;;;;;;;25.00;15.25;;;;;;;;;;4992354;28;20457;-67
2021/11/24 06:49:52;;;;;;;26.08;16.08;;;;;;;;;;4992482;28;20117;-67
2021/11/24 06:52:18;;;;;;;30.42;16.42;;;;;;;;;;4991921;28;20227;-66
2021/11/24 06:54:45;;;;;;;30.65;16.92;;;;;;;;;;4992426;28;20108;-66
2021/11/24 06:57:12;;;;;;;33.30;17.73;;;;;;;;;;4992270;28;20054;-67
2021/11/24 06:59:38;;;;;;;30.73;15.23;;;;;;;;;;4992174;28;20058;-67
2021/11/24 07:02:05;;;;;;;28.00;16.00;;;;;;;;;;4992018;28;20077;-66
2021/11/24 07:04:33;;;;;;;34.97;16.60;;;;;;;;;;5010277;28;20057;-66
2021/11/24 07:07:00;;;;;;;30.65;16.58;;;;;;;;;;5011680;28;20109;-66
2021/11/24 07:09:27;;;;;;;31.65;17.63;;;;;;;;;;5011728;28;20050;-66
2021/11/24 07:11:54;;;;;;;36.63;18.13;;;;;;;;;;5009432;28;20093;-65
2021/11/24 07:14:20;;;;;;;36.80;19.48;;;;;;;;;;5009830;28;20045;-66
2021/11/24 07:16:47;;;;;;;37.67;19.23;;;;;;;;;;5010269;28;20112;-66
2021/11/24 07:19:16;;;;;;;36.88;18.30;;;;;;;;;;5009857;28;20097;-66
2021/11/24 07:21:47;;;;;;;32.42;18.10;;;;;;;;;;5009438;28;21192;-66
2021/11/24 07:24:18;;;;;;;35.03;18.08;;;;;;;;;;5006555;28;20112;-66
2021/11/24 07:26:45;;;;;;;37.90;17.90;;;;;;;;;;5002380;28;20046;-65
2021/11/24 07:29:15;;;;;;;38.80;18.45;;;;;;;;;;4991531;28;20065;-66
2021/11/24 07:31:41;;;;;;;38.55;18.60;;;;;;;;;;5009676;28;20489;-66
2021/11/24 07:34:08;;;;;;;36.67;18.58;;;;;;;;;;5009711;28;20088;-65
2021/11/24 07:36:35;;;;;;;34.70;18.70;;;;;;;;;;5009662;28;20073;-66
2021/11/24 07:39:02;;;;;;;46.58;18.92;;;;;;;;;;4996374;28;20125;-66
2021/11/24 07:41:29;;;;;;;37.20;17.80;;;;;;;;;;5009272;28;20103;-65
2021/11/24 07:43:55;;;;;;;33.78;17.52;;;;;;;;;;5009416;28;20124;-67
2021/11/24 07:46:22;;;;;;;36.78;18.13;;;;;;;;;;5010256;28;20629;-66
2021/11/24 07:48:51;;;;;;;36.38;18.88;;;;;;;;;;5013020;28;20500;-66
2021/11/24 07:51:18;;;;;;;37.00;18.90;;;;;;;;;;5012486;28;20531;-67
2021/11/24 07:53:45;;;;;;;32.58;17.90;;;;;;;;;;5013433;28;20112;-64
2021/11/24 07:56:12;;;;;;;41.80;19.58;;;;;;;;;;5013730;28;20128;-65
2021/11/24 07:58:41;;;;;;;37.25;18.75;;;;;;;;;;5014469;28;20069;-64
2021/11/24 08:01:09;;;;;;;37.42;18.23;;;;;;;;;;5014763;28;20452;-64
2021/11/24 08:03:36;;;;;;;35.40;18.80;;;;;;;;;;5014638;28;20050;-66
2021/11/24 08:06:02;;;;;;;35.10;18.58;;;;;;;;;;5014466;28;20100;-66
2021/11/24 08:08:29;;;;;;;35.10;18.55;;;;;;;;;;5013561;28;20425;-65
2021/11/24 08:10:56;;;;;;;29.25;15.82;;;;;;;;;;4994650;28;20486;-65
2021/11/24 08:13:22;;;;;;;30.88;16.75;;;;;;;;;;4994983;28;20046;-67
2021/11/24 08:15:49;;;;;;;29.55;15.95;;;;;;;;;;4994980;28;20100;-65
2021/11/24 08:18:16;;;;;;;33.45;16.38;;;;;;;;;;4994962;28;20065;-67
2021/11/24 08:20:43;;;;;;;28.83;16.05;;;;;;;;;;5002517;28;20115;-67
2021/11/24 08:23:10;;;;;;;28.63;16.23;;;;;;;;;;4994493;28;20068;-67
2021/11/24 08:25:37;;;;;;;37.25;18.80;;;;;;;;;;4994736;28;20437;-66
2021/11/24 08:28:03;;;;;;;29.63;16.05;;;;;;;;;;4994674;28;20101;-66
2021/11/24 08:30:30;;;;;;;25.08;15.18;;;;;;;;;;5023384;28;20054;-67
2021/11/24 08:32:57;;;;;;;25.75;14.68;;;;;;;;;;5005677;28;20041;-67
2021/11/24 08:35:23;;;;;;;28.27;14.77;;;;;;;;;;5002014;28;20073;-69
2021/11/24 08:37:50;;;;;;;26.67;15.18;;;;;;;;;;4999879;28;20104;-68
2021/11/24 08:40:17;;;;;;;24.55;14.15;;;;;;;;;;5002329;28;20521;-65
2021/11/24 08:42:43;;;;;;;22.70;13.65;;;;;;;;;;4999025;28;20452;-65
2021/11/24 08:45:11;;;;;;;23.40;14.13;;;;;;;;;;5003498;28;20053;-65
2021/11/24 08:47:38;;;;;;;26.00;14.02;;;;;;;;;;5002215;28;20104;-66
2021/11/24 08:50:06;;;;;;;25.85;15.07;;;;;;;;;;5001071;28;20054;-66
2021/11/24 08:52:33;;;;;;;24.73;14.13;;;;;;;;;;4998994;28;20050;-65
2021/11/24 08:55:00;;;;;;;22.50;13.73;;;;;;;;;;5004536;28;20049;-65
2021/11/24 08:57:27;;;;;;;22.15;12.98;;;;;;;;;;5001087;28;20050;-65
2021/11/24 08:59:53;;;;;;;22.92;13.13;;;;;;;;;;5001388;28;20046;-65
2021/11/24 09:02:22;;;;;;;22.92;13.90;;;;;;;;;;5001964;28;20583;-64
2021/11/24 09:04:50;;;;;;;22.50;13.55;;;;;;;;;;4998679;28;20100;-65
2021/11/24 09:07:16;;;;;;;21.23;11.93;;;;;;;;;;4999023;28;20049;-66
2021/11/24 09:09:43;;;;;;;21.05;12.93;;;;;;;;;;5002461;28;20062;-65
2021/11/24 09:12:10;;;;;;;20.05;12.85;;;;;;;;;;5000332;28;20504;-65
2021/11/24 09:14:37;;;;;;;18.88;11.98;;;;;;;;;;4998827;28;20104;-66
2021/11/24 09:17:06;;;;;;;18.08;11.25;;;;;;;;;;5003048;28;20047;-66
2021/11/24 09:19:33;;;;;;;18.80;11.80;;;;;;;;;;4996032;28;20914;-66
2021/11/24 09:22:00;;;;;;;18.55;12.13;;;;;;;;;;5018242;28;20046;-67
2021/11/24 09:24:27;;;;;;;20.48;12.43;;;;;;;;;;4998964;28;20073;-66
2021/11/24 09:26:59;;;;;;;17.77;11.82;;;;;;;;;;5000394;28;20095;-69
2021/11/24 09:29:27;;;;;;;16.08;11.70;;;;;;;;;;4997758;28;20054;-68
2021/11/24 09:31:55;;;;;;;18.15;11.85;;;;;;;;;;5001702;28;20045;-68
2021/11/24 09:34:23;;;;;;;16.63;12.13;;;;;;;;;;4999908;28;20042;-68
2021/11/24 09:36:50;;;;;;;18.67;12.05;;;;;;;;;;4998707;28;20452;-67
2021/11/24 09:39:16;;;;;;;16.20;10.15;;;;;;;;;;5003121;28;20104;-67
2021/11/24 09:41:45;;;;;;;19.60;11.15;;;;;;;;;;4997760;28;20081;-66
2021/11/24 09:44:12;;;;;;;18.20;11.70;;;;;;;;;;5002432;28;20472;-67
2021/11/24 09:46:47;;;;;;;18.48;12.25;;;;;;;;;;4997609;28;20093;-67
2021/11/24 09:49:15;;;;;;;18.15;11.68;;;;;;;;;;5001041;28;20049;-65
2021/11/24 09:51:42;;;;;;;17.98;11.18;;;;;;;;;;4997636;28;20109;-65
2021/11/24 09:54:10;;;;;;;16.63;10.73;;;;;;;;;;4998822;28;20045;-65
2021/11/24 09:56:39;;;;;;;19.00;11.68;;;;;;;;;;5001008;28;20045;-66
2021/11/24 09:59:15;;;;;;;17.70;11.48;;;;;;;;;;4997408;28;20108;-66
2021/11/24 10:01:42;;;;;;;16.40;11.07;;;;;;;;;;4996775;28;20042;-66
2021/11/24 10:04:09;;;;;;;16.05;10.55;;;;;;;;;;4997970;28;20133;-66
2021/11/24 10:06:39;;;;;;;17.92;10.95;;;;;;;;;;4999210;28;20746;-66
2021/11/24 10:09:10;;;;;;;13.93;9.88;;;;;;;;;;4998180;28;20331;-65
2021/11/24 10:11:37;;;;;;;16.05;10.85;;;;;;;;;;4998172;28;20509;-66
2021/11/24 10:14:04;;;;;;;17.55;11.38;;;;;;;;;;4998842;28;20046;-66
2021/11/24 10:16:33;;;;;;;15.75;11.02;;;;;;;;;;4997679;28;20109;-65
2021/11/24 10:19:01;;;;;;;17.42;11.35;;;;;;;;;;4999486;28;20098;-65
2021/11/24 10:21:28;;;;;;;19.13;11.57;;;;;;;;;;4998921;28;20081;-66
2021/11/24 10:24:02;;;;;;;17.20;11.48;;;;;;;;;;5000473;28;20164;-65
2021/11/24 10:26:33;;;;;;;16.88;10.73;;;;;;;;;;5001478;28;20050;-65
2021/11/24 10:29:20;;;;;;;15.60;10.70;;;;;;;;;;4997226;28;20573;-65
2021/11/24 10:31:51;;;;;;;17.15;11.65;;;;;;;;;;4998928;28;20076;-66
2021/11/24 10:34:20;;;;;;;18.15;11.63;;;;;;;;;;5013706;28;21262;-65
2021/11/24 10:37:10;;;;;;;15.50;10.18;;;;;;;;;;4997748;28;20461;-65
2021/11/24 10:39:40;;;;;;;18.08;11.70;;;;;;;;;;4996486;28;20077;-66
2021/11/24 10:42:15;;;;;;;15.60;11.95;;;;;;;;;;4998536;28;20096;-66
2021/11/24 10:44:54;;;;;;;16.63;11.80;;;;;;;;;;5001431;28;20107;-66
2021/11/24 10:47:21;;;;;;;16.20;10.30;;;;;;;;;;5003507;28;20051;-67
2021/11/24 10:49:50;;;;;;;15.95;11.02;;;;;;;;;;5003022;28;20101;-65
2021/11/24 10:52:20;;;;;;;17.30;11.38;;;;;;;;;;5012411;28;20062;-64
2021/11/24 10:55:14;;;;;;;17.40;11.68;;;;;;;;;;4996738;28;20057;-65
2021/11/24 10:57:42;;;;;;;19.45;12.60;;;;;;;;;;4999429;28;20101;-65
2021/11/24 11:00:12;;;;;;;18.17;12.15;;;;;;;;;;4998495;28;20138;-65
2021/11/24 11:02:43;;;;;;;20.25;12.13;;;;;;;;;;5014042;28;20045;-66
2021/11/24 11:05:21;;;;;;;19.40;11.70;;;;;;;;;;4999133;28;20081;-67
2021/11/24 11:07:48;;;;;;;16.08;11.27;;;;;;;;;;5002459;28;20054;-70
2021/11/24 11:10:17;;;;;;;16.45;10.35;;;;;;;;;;4998408;28;20046;-69
2021/11/24 11:13:12;;;;;;;13.63;9.30;;;;;;;;;;4996361;28;20054;-69
2021/11/24 11:15:40;;;;;;;14.00;9.32;;;;;;;;;;4996721;28;20076;-65
2021/11/24 11:18:11;;;;;;;13.73;9.60;;;;;;;;;;4998681;28;20045;-66
2021/11/24 11:20:53;;;;;;;15.40;10.57;;;;;;;;;;4996386;28;20231;-71
2021/11/24 11:23:30;;;;;;;14.50;9.93;;;;;;;;;;4999880;28;20082;-68
2021/11/24 11:25:58;;;;;;;12.38;9.82;;;;;;;;;;5003094;28;20112;-68
2021/11/24 11:28:31;;;;;;;16.48;10.93;;;;;;;;;;5003971;28;20490;-69
2021/11/24 11:31:01;;;;;;;13.70;9.85;;;;;;;;;;5000278;28;20109;-67
2021/11/24 11:33:33;;;;;;;12.38;9.50;;;;;;;;;;5004155;28;20112;-66
2021/11/24 11:36:04;;;;;;;12.73;9.82;;;;;;;;;;5000350;28;20050;-66
2021/11/24 11:38:30;;;;;;;16.10;9.50;;;;;;;;;;5001856;28;20096;-67
2021/11/24 11:40:59;;;;;;;12.38;9.55;;;;;;;;;;5007916;28;20053;-68
2021/11/24 11:43:49;;;;;;;12.70;9.00;;;;;;;;;;5012129;28;20047;-68
2021/11/24 11:46:45;;;;;;;12.88;9.18;;;;;;;;;;5001250;28;20088;-69
2021/11/24 11:49:15;;;;;;;11.60;9.02;;;;;;;;;;5021720;28;20050;-71
2021/11/24 11:51:44;;;;;;;13.98;10.13;;;;;;;;;;5001863;28;20509;-70
2021/11/24 11:54:21;;;;;;;12.85;9.57;;;;;;;;;;5003546;28;20042;-69
2021/11/24 11:56:48;;;;;;;17.40;9.88;;;;;;;;;;5001615;28;20050;-69
2021/11/24 11:59:19;;;;;;;11.82;9.00;;;;;;;;;;4998463;28;20124;-67
2021/11/24 12:01:46;;;;;;;11.10;8.38;;;;;;;;;;5005612;28;20123;-69
2021/11/24 12:04:19;;;;;;;13.48;9.18;;;;;;;;;;5001449;28;20122;-70
2021/11/24 12:06:46;;;;;;;15.20;9.77;;;;;;;;;;5000127;28;20050;-69
2021/11/24 12:09:14;;;;;;;13.68;9.40;;;;;;;;;;5004966;28;20108;-70
2021/11/24 12:12:08;;;;;;;12.02;8.82;;;;;;;;;;5016688;28;20137;-68
2021/11/24 12:15:01;;;;;;;12.32;8.88;;;;;;;;;;4992226;28;20050;-69
2021/11/24 12:17:50;;;;;;;13.77;9.30;;;;;;;;;;5005572;28;20492;-71
2021/11/24 12:20:18;;;;;;;11.88;8.63;;;;;;;;;;5002811;28;20054;-71
2021/11/24 12:22:48;;;;;;;12.10;9.20;;;;;;;;;;5001494;28;20461;-70
2021/11/24 12:25:17;;;;;;;13.48;9.68;;;;;;;;;;5005223;28;20054;-65
2021/11/24 12:27:50;;;;;;;11.00;9.13;;;;;;;;;;5008234;28;20046;-67
2021/11/24 12:33:03;;;;;;;12.02;8.93;;;;;;;;;;4941997;28;20055;-64
2021/11/24 12:35:30;;;;;;;12.88;8.98;;;;;;;;;;4945837;29;20114;-66
2021/11/24 12:38:18;;;;;;;13.55;9.15;;;;;;;;;;4945573;29;20059;-64
2021/11/24 12:40:46;;;;;;;13.60;9.23;;;;;;;;;;4944410;28;20350;-64
2021/11/24 12:43:16;;;;;;;11.77;9.07;;;;;;;;;;4945821;29;20048;-65
2021/11/24 12:46:04;;;;;;;12.48;8.93;;;;;;;;;;4941322;29;20459;-66
2021/11/24 12:48:43;;;;;;;12.98;8.75;;;;;;;;;;4940696;29;20470;-65
2021/11/24 12:51:20;;;;;;;14.65;9.63;;;;;;;;;;4946116;28;20494;-65
2021/11/24 12:53:54;;;;;;;13.95;9.98;;;;;;;;;;4944706;28;20565;-64
2021/11/24 12:56:25;;;;;;;14.35;9.70;;;;;;;;;;4948204;29;20055;-64
2021/11/24 12:58:52;;;;;;;13.10;9.57;;;;;;;;;;4945034;28;20051;-63
2021/11/24 13:01:23;;;;;;;15.75;10.25;;;;;;;;;;4944585;28;20051;-65
2021/11/24 13:03:56;;;;;;;16.65;10.68;;;;;;;;;;4946130;28;20533;-65
2021/11/24 13:06:23;;;;;;;15.55;10.18;;;;;;;;;;4943998;28;20152;-64
2021/11/24 13:09:12;;;;;;;16.45;10.48;;;;;;;;;;4944649;29;20051;-66
2021/11/24 13:11:53;;;;;;;;;;;;;;;;;;4944061;28;20487;-64
2021/11/24 13:14:35;;;;;;;13.60;9.80;;;;;;;;;;4943695;29;19934;-66
2021/11/24 13:17:13;;;;;;;15.23;10.40;;;;;;;;;;4945775;29;20050;-64
2021/11/24 13:19:42;;;;;;;16.50;11.23;;;;;;;;;;4941552;29;20066;-65
2021/11/24 13:22:09;;;;;;;14.93;10.30;;;;;;;;;;4941306;28;20051;-65
2021/11/24 13:24:40;;;;;;;14.50;10.15;;;;;;;;;;4946051;28;20054;-65
2021/11/24 13:27:07;;;;;;;18.23;10.93;;;;;;;;;;4944057;28;20111;-65
2021/11/24 13:29:36;;;;;;;17.55;11.02;;;;;;;;;;4944225;28;20059;-66
2021/11/24 13:32:04;;;;;;;16.02;10.77;;;;;;;;;;4940374;28;20055;-65
2021/11/24 13:34:32;;;;;;;16.45;10.82;;;;;;;;;;4941214;28;20051;-65
2021/11/24 13:36:59;;;;;;;15.68;10.93;;;;;;;;;;4943589;28;20057;-65
2021/11/24 13:39:26;;;;;;;17.40;12.38;;;;;;;;;;4970995;28;20051;-64
2021/11/24 13:42:11;;;;;;;17.63;11.80;;;;;;;;;;4934248;28;20047;-66
2021/11/24 13:44:52;;;;;;;21.38;12.52;;;;;;;;;;4942978;28;20051;-69
2021/11/24 13:47:23;;;;;;;17.92;11.00;;;;;;;;;;4942735;28;20460;-66
2021/11/24 13:49:56;;;;;;;19.98;11.65;;;;;;;;;;4942545;29;20071;-68
2021/11/24 13:52:24;;;;;;;18.27;12.50;;;;;;;;;;4941798;28;20058;-68
2021/11/24 13:54:53;;;;;;;18.98;12.68;;;;;;;;;;4942518;29;20040;-69
2021/11/24 13:57:21;;;;;;;18.17;11.63;;;;;;;;;;4941494;29;20106;-68
2021/11/24 13:59:56;;;;;;;19.40;13.15;;;;;;;;;;4941069;28;20047;-66
2021/11/24 14:02:24;;;;;;;17.98;12.85;;;;;;;;;;5013765;23;20559;-67
2021/11/24 14:04:57;;;;;;;17.70;11.98;;;;;;;;;;4978617;28;20039;-70
2021/11/24 14:07:30;;;;;;;23.38;13.88;;;;;;;;;;4983322;28;20046;-71
2021/11/24 14:09:59;;;;;;;21.83;13.30;;;;;;;;;;4989062;28;20262;-68
2021/11/24 14:12:37;;;;;;;21.65;14.20;;;;;;;;;;4981020;28;20054;-69
2021/11/24 14:15:04;;;;;;;24.58;14.10;;;;;;;;;;4975518;28;20043;-67
2021/11/24 14:17:35;;;;;;;21.45;14.13;;;;;;;;;;4977426;28;20071;-70
2021/11/24 14:20:19;;;;;;;20.27;13.90;;;;;;;;;;4979604;28;20054;-69
2021/11/24 14:22:46;;;;;;;19.52;13.05;;;;;;;;;;4964548;28;20105;-69
2021/11/24 14:25:16;;;;;;;20.20;13.85;;;;;;;;;;4982684;28;20211;-70
2021/11/24 14:27:46;;;;;;;19.25;12.82;;;;;;;;;;4978842;28;20104;-69
2021/11/24 14:30:14;;;;;;;20.20;12.88;;;;;;;;;;4977643;28;20054;-68
2021/11/24 14:32:42;;;;;;;21.60;12.95;;;;;;;;;;4978123;28;20109;-69
2021/11/24 14:35:10;;;;;;;23.20;13.95;;;;;;;;;;4978986;28;20038;-68
2021/11/24 14:37:37;;;;;;;24.45;14.23;;;;;;;;;;4978376;28;20121;-66